Home > Products > Valid Products > TAF

000
FTUS41 KOKX 290500
TAFLGA
TAF
KLGA 290520Z 2906/3006 35007KT P6SM SKC
     FM291400 03008KT P6SM FEW250
     FM291800 08008KT P6SM FEW050 SCT250
     FM292100 16009KT P6SM FEW050 SCT250
     FM300300 17006KT P6SM FEW050 SCT250=



000
FTUS41 KOKX 290500
TAFSWF
TAF
KSWF 290520Z 2906/3012 VRB05KT P6SM SKC
     FM291500 06006KT P6SM FEW250
     FM292000 16005KT P6SM FEW050 SCT250
     FM301000 VRB05KT P6SM FEW050 SCT250
      AMD NOT SKED=



000
FTUS41 KOKX 290500
TAFTEB
TAF
KTEB 290520Z 2906/3006 34005KT P6SM SKC
     FM291500 04006KT P6SM FEW250
     FM291800 12006KT P6SM FEW050 SCT250
     FM292100 16006KT P6SM FEW050 SCT250=



000
FTUS41 KOKX 290500
TAFJFK
TAF
KJFK 290520Z 2906/3012 35008KT P6SM SCT060
     FM291500 03009KT P6SM FEW250
     FM291800 16012KT P6SM FEW050 SCT250
     FM300300 15007KT P6SM FEW050 SCT250=



000
FTUS41 KOKX 290500
TAFBDR
TAF
KBDR 290520Z 2906/3006 34007KT P6SM SKC
     FM291400 03007KT P6SM SKC
     FM291700 16009KT P6SM FEW050 SCT250
     FM300300 17005KT P6SM FEW050 SCT250=



000
FTUS41 KOKX 290500
TAFGON
TAF
KGON 290520Z 2906/3006 35005KT P6SM SKC
     FM291400 03007KT P6SM SKC
     FM291700 16009KT P6SM SKC
     FM300300 VRB05KT P6SM SCT250=



000
FTUS41 KOKX 290500
TAFEWR
TAF
KEWR 290520Z 2906/3012 33010KT P6SM FEW060
     FM290900 35008KT P6SM SKC
     FM291500 03005KT P6SM FEW250
     FM292000 15008KT P6SM FEW050 SCT250
     FM300300 16005KT P6SM FEW050 SCT250=



000
FTUS41 KOKX 290500
TAFISP
TAF
KISP 290520Z 2906/3006 34010KT P6SM SKC
     FM290800 36006KT P6SM SKC
     FM291700 06009KT P6SM FEW250
     FM292000 16009KT P6SM FEW050 SCT250
     FM300300 16005KT P6SM FEW050 SCT250=



000
FTUS41 KOKX 290200 AAA
TAFBDR
TAF AMD
KBDR 290231Z 2903/2924 34012G18KT P6SM FEW050
     FM290300 35007KT P6SM SKC
     FM291400 03007KT P6SM SKC
     FM291700 15006KT P6SM SKC=



000
FTUS41 KOKX 290200 AAA
TAFGON
TAF AMD
KGON 290231Z 2903/2924 33009KT P6SM FEW040
     FM290700 36006KT P6SM SKC
     FM291700 15007KT P6SM SKC=



000
FTUS41 KOKX 290200 AAA
TAFTEB
TAF AMD
KTEB 290231Z 2903/2924 34005KT P6SM SKC
     FM291500 06006KT P6SM SKC
     FM291800 10005KT P6SM SKC
     FM292100 15006KT P6SM SKC=



000
FTUS41 KOKX 290200 AAA
TAFLGA
TAF AMD
KLGA 290231Z 2903/2924 33015G24KT P6SM FEW050
     FM290400 35012KT P6SM SKC
     FM290900 01007KT P6SM SKC
     FM291400 04007KT P6SM SKC
     FM291800 06008KT P6SM SKC
     FM292100 16009KT P6SM SKC=



000
FTUS41 KOKX 290200 AAA
TAFISP
TAF AMD
KISP 290231Z 2903/2924 34010KT P6SM FEW050
     FM290800 36006KT P6SM SKC
     FM291700 04009KT P6SM SKC
     FM292000 14009KT P6SM SKC=



000
FTUS41 KOKX 290200 AAA
TAFJFK
TAF AMD
KJFK 290231Z 2903/3006 34015KT P6SM FEW050
     FM290400 35012KT P6SM SKC
     FM290900 36008KT P6SM SKC
     FM291500 03007KT P6SM SKC
     FM291800 16011KT P6SM SKC
     FM300000 15007KT P6SM SKC=



000
FTUS41 KOKX 290200 AAA
TAFSWF
TAF AMD
KSWF 290231Z 2903/3006 31010KT P6SM SCT050
     FM290400 31005KT P6SM SKC
     FM291500 06006KT P6SM SKC
     FM292000 VRB05KT P6SM SKC
     FM300000 16004KT P6SM SKC
      AMD NOT SKED=



000
FTUS41 KOKX 290200 AAA
TAFEWR
TAF AMD
KEWR 290231Z 2903/3006 33014G20KT P6SM FEW050
     FM290400 34010KT P6SM SKC
     FM290900 35008KT P6SM SKC
     FM291500 04005KT P6SM SKC
     FM292000 15008KT P6SM SKC
     FM300000 14005KT P6SM SKC=



000
FTUS41 KOKX 282300
TAFGON
TAF
KGON 282322Z 2900/2924 33009KT P6SM FEW040
     FM290700 36006KT P6SM SKC
     FM291700 15007KT P6SM SKC=



000
FTUS41 KOKX 282300
TAFLGA
TAF
KLGA 282322Z 2900/2924 34012KT P6SM FEW050
     FM290900 01007KT P6SM SKC
     FM291400 04007KT P6SM SKC
     FM291800 06008KT P6SM SKC
     FM292100 16009KT P6SM SKC=



000
FTUS41 KOKX 282300
TAFSWF
TAF
KSWF 282322Z 2900/3006 34010KT P6SM SCT050
     FM290400 31005KT P6SM SKC
     FM291500 06006KT P6SM SKC
     FM292000 VRB05KT P6SM SKC
     FM300000 16004KT P6SM SKC
      AMD NOT SKED=



000
FTUS41 KOKX 282300
TAFEWR
TAF
KEWR 282322Z 2900/3006 33012KT P6SM FEW050
     FM290900 35008KT P6SM SKC
     FM291500 04005KT P6SM SKC
     FM292000 15008KT P6SM SKC
     FM300000 14005KT P6SM SKC=



000
FTUS41 KOKX 282300
TAFTEB
TAF
KTEB 282322Z 2900/2924 33010KT P6SM FEW050
     FM290200 34005KT P6SM SKC
     FM291500 06006KT P6SM SKC
     FM291800 10005KT P6SM SKC
     FM292100 15006KT P6SM SKC=



000
FTUS41 KOKX 282300
TAFISP
TAF
KISP 282322Z 2900/2924 34010KT P6SM FEW050
     FM290800 36006KT P6SM SKC
     FM291700 04009KT P6SM SKC
     FM292000 14009KT P6SM SKC=



000
FTUS41 KOKX 282300
TAFBDR
TAF
KBDR 282322Z 2900/2924 34009KT P6SM FEW050
     FM290300 35005KT P6SM SKC
     FM291400 03007KT P6SM SKC
     FM291700 15006KT P6SM SKC=



000
FTUS41 KOKX 282300
TAFJFK
TAF
KJFK 282322Z 2900/3006 35012KT P6SM FEW050
     FM290900 36008KT P6SM SKC
     FM291500 03007KT P6SM SKC
     FM291800 16011KT P6SM SKC
     FM300000 15007KT P6SM SKC=



000
FTUS41 KOKX 282200 AAC
TAFSWF
TAF AMD
KSWF 282204Z 2822/2924 35010KT P6SM BKN050
     FM282300 34010KT P6SM SCT050
     FM290400 31005KT P6SM SKC
     FM291500 06006KT P6SM SKC
     FM292000 VRB05KT P6SM SKC
      AMD NOT SKED=



000
FTUS41 KOKX 282200 AAB
TAFLGA
TAF AMD
KLGA 282203Z 2822/2918 34012G18KT P6SM SCT050
     FM282300 35012KT P6SM FEW050
     FM290900 36007KT P6SM SKC
     FM291400 04007KT P6SM SKC=



000
FTUS41 KOKX 282200 AAC
TAFJFK
TAF AMD
KJFK 282203Z 2822/2924 35014G19KT P6SM SCT050
     FM290000 35012KT P6SM FEW050
     FM290900 36008KT P6SM SKC
     FM291500 03007KT P6SM SKC
     FM291800 16011KT P6SM SKC=



000
FTUS41 KOKX 282100 AAB
TAFJFK
TAF AMD
KJFK 282113Z 2821/2924 33014G19KT P6SM SCT050
     FM290000 34012KT P6SM FEW050
     FM290900 36008KT P6SM SKC
     FM291500 03007KT P6SM SKC
     FM291800 16011KT P6SM SKC=



000
FTUS41 KOKX 282100 AAB
TAFSWF
TAF AMD
KSWF 282112Z 2821/2924 34014G20KT P6SM BKN050
     FM282300 33010KT P6SM SCT050
     FM290400 31005KT P6SM SKC
     FM291500 06006KT P6SM SKC
     FM292000 VRB05KT P6SM SKC
      AMD NOT SKED=



000
FTUS41 KOKX 282100 AAB
TAFGON
TAF AMD
KGON 282109Z 2821/2918 34012G19KT P6SM SCT040
     FM282300 34009KT P6SM FEW040
     FM290700 36006KT P6SM SKC
     FM291700 15007KT P6SM SKC=



000
FTUS41 KOKX 282100 AAB
TAFISP
TAF AMD
KISP 282108Z 2821/2918 33012KT P6SM SCT050
     FM282300 33009KT P6SM FEW050
     FM290800 36006KT P6SM SKC
     FM291700 04009KT P6SM SKC=



000
FTUS41 KOKX 282000 AAA
TAFJFK
TAF AMD
KJFK 282030Z 2821/2924 31014G19KT P6SM SCT050
     FM290000 34012KT P6SM FEW050
     FM290900 36008KT P6SM SKC
     FM291500 03007KT P6SM SKC
     FM291800 16011KT P6SM SKC=



000
FTUS41 KOKX 282000 AAA
TAFGON
TAF AMD
KGON 282030Z 2821/2918 31012G19KT P6SM SCT040
     FM282300 33009KT P6SM FEW040
     FM290700 36006KT P6SM SKC
     FM291700 15007KT P6SM SKC=



000
FTUS41 KOKX 282000 AAA
TAFISP
TAF AMD
KISP 282030Z 2821/2918 31013G20KT P6SM SCT050
     FM282300 33009KT P6SM FEW050
     FM290800 36006KT P6SM SKC
     FM291700 04009KT P6SM SKC=



000
FTUS41 KOKX 282000 AAA
TAFBDR
TAF AMD
KBDR 282030Z 2821/2918 34013G18KT P6SM SCT050
     FM282300 34009KT P6SM FEW050
     FM290300 35005KT P6SM SKC
     FM291400 03007KT P6SM SKC
     FM291700 15006KT P6SM SKC=



000
FTUS41 KOKX 282000 AAA
TAFLGA
TAF AMD
KLGA 282030Z 2821/2918 32012G18KT P6SM SCT050
     FM282300 33012KT P6SM FEW050
     FM290900 36007KT P6SM SKC
     FM291400 04007KT P6SM SKC=



000
FTUS41 KOKX 282000 AAA
TAFSWF
TAF AMD
KSWF 282030Z 2821/2924 33014G20KT P6SM BKN050
     FM282300 33010KT P6SM SCT050
     FM290400 31005KT P6SM SKC
     FM291500 06006KT P6SM SKC
     FM292000 VRB05KT P6SM SKC
      AMD NOT SKED=



000
FTUS41 KOKX 282000 AAA
TAFTEB
TAF AMD
KTEB 282030Z 2821/2918 32011G18KT P6SM SCT050
     FM282300 33010KT P6SM FEW050
     FM290200 34005KT P6SM SKC
     FM291500 06006KT P6SM SKC=



000
FTUS41 KOKX 282000 AAA
TAFEWR
TAF AMD
KEWR 282030Z 2821/2924 32013G19KT P6SM SCT050
     FM290000 33012KT P6SM FEW050
     FM290900 35008KT P6SM SKC
     FM291500 04005KT P6SM SKC
     FM292000 15008KT P6SM SKC=



000
FTUS41 KOKX 281700
TAFISP
TAF
KISP 281728Z 2818/2918 33013G20KT P6SM SCT050
     FM282300 33009KT P6SM FEW050
     FM290800 36006KT P6SM SKC
     FM291700 04009KT P6SM SKC=



000
FTUS41 KOKX 281700
TAFEWR
TAF
KEWR 281728Z 2818/2924 33013G19KT P6SM SCT050
     FM290000 33012KT P6SM FEW050
     FM290900 35008KT P6SM SKC
     FM291500 04005KT P6SM SKC
     FM292000 15008KT P6SM SKC=



000
FTUS41 KOKX 281700
TAFTEB
TAF
KTEB 281728Z 2818/2918 32011G18KT P6SM SCT050
     FM282300 33010KT P6SM FEW050
     FM290200 34005KT P6SM SKC
     FM291500 06006KT P6SM SKC=



000
FTUS41 KOKX 281700
TAFLGA
TAF
KLGA 281728Z 2818/2918 33012G18KT P6SM SCT050
     FM282300 33012KT P6SM FEW050
     FM290900 36007KT P6SM SKC
     FM291400 04007KT P6SM SKC=



000
FTUS41 KOKX 281700
TAFJFK
TAF
KJFK 281728Z 2818/2924 32014G19KT P6SM SCT040
     FM290000 34012KT P6SM FEW050
     FM290900 36008KT P6SM SKC
     FM291500 03007KT P6SM SKC
     FM291800 16011KT P6SM SKC=



000
FTUS41 KOKX 281700
TAFGON
TAF
KGON 281728Z 2818/2918 31012G19KT P6SM SCT040
     FM282300 33009KT P6SM FEW040
     FM290700 36006KT P6SM SKC
     FM291700 15007KT P6SM SKC=



000
FTUS41 KOKX 281700
TAFBDR
TAF
KBDR 281728Z 2818/2918 31013G18KT P6SM SCT050
     FM282300 34009KT P6SM FEW050
     FM290300 35005KT P6SM SKC
     FM291400 03007KT P6SM SKC
     FM291700 15006KT P6SM SKC=



000
FTUS41 KOKX 281700
TAFSWF
TAF
KSWF 281728Z 2818/2924 33014G20KT P6SM BKN050
     FM282300 33010KT P6SM FEW050
     FM290400 31005KT P6SM SKC
     FM291500 06006KT P6SM SKC
     FM292000 VRB05KT P6SM SKC
      AMD NOT SKED=



000
FTUS41 KOKX 281400 AAA
TAFEWR
TAF AMD
KEWR 281441Z 2815/2918 33013G18KT P6SM FEW050
     FM282200 33013KT P6SM FEW050
     FM290300 34011KT P6SM SKC
     FM290900 35008KT P6SM SKC=



000
FTUS41 KOKX 281400 AAA
TAFGON
TAF AMD
KGON 281441Z 2815/2912 34012G19KT P6SM SCT040
     FM281800 30012G18KT P6SM SCT040
     FM282300 32008KT P6SM SKC
     FM290200 34006KT P6SM SKC
     FM290600 36004KT P6SM SKC=



000
FTUS41 KOKX 281400 AAA
TAFBDR
TAF AMD
KBDR 281441Z 2815/2912 34012G18KT P6SM SKC
     FM281800 31013G17KT P6SM FEW050
     FM290000 34008KT P6SM SKC
     FM290600 36005KT P6SM SKC=



000
FTUS41 KOKX 281400 AAA
TAFSWF
TAF AMD
KSWF 281441Z 2815/2918 33010G18KT P6SM FEW020 SCT040
     FM281800 33012G18KT P6SM BKN040
     FM282300 33006KT P6SM SKC
     FM290600 31003KT P6SM SKC
     FM291300 01004KT P6SM SKC
      AMD NOT SKED=



000
FTUS41 KOKX 281400 AAA
TAFISP
TAF AMD
KISP 281441Z 2815/2912 33012G18KT P6SM FEW050
     FM282200 32013KT P6SM FEW050
     FM290000 33008KT P6SM SKC
     FM290600 36006KT P6SM SKC=



000
FTUS41 KOKX 281400 AAA
TAFJFK
TAF AMD
KJFK 281441Z 2815/2918 34014G19KT P6SM FEW040
     FM281800 32013G18KT P6SM FEW040
     FM290000 34011KT P6SM SKC
     FM290900 36008KT P6SM SKC
     FM291500 03008KT P6SM SKC=



000
FTUS41 KOKX 281400 AAA
TAFTEB
TAF AMD
KTEB 281441Z 2815/2912 33011G16KT P6SM FEW050
     FM282200 32013KT P6SM FEW050
     FM290000 34007KT P6SM SKC
     FM290600 36005KT P6SM SKC=



000
FTUS41 KOKX 281400 AAA
TAFLGA
TAF AMD
KLGA 281441Z 2815/2912 33012G18KT P6SM FEW050
     FM282200 33012KT P6SM FEW050
     FM290300 34011KT P6SM SKC
     FM290900 36007KT P6SM SKC=



000
FTUS41 KOKX 281100
TAFLGA
TAF
KLGA 281140Z 2812/2912 35010KT P6SM SKC
     FM281400 33012G18KT P6SM SKC
     FM282100 33012KT P6SM FEW050
     FM290300 34011KT P6SM SKC
     FM290900 36007KT P6SM SKC=



000
FTUS41 KOKX 281100
TAFTEB
TAF
KTEB 281140Z 2812/2912 35006KT P6SM SKC
     FM281400 33011G16KT P6SM SKC
     FM282100 32013KT P6SM FEW050
     FM290000 34007KT P6SM SKC
     FM290600 36005KT P6SM SKC=



000
FTUS41 KOKX 281100
TAFSWF
TAF
KSWF 281140Z 2812/2918 32006KT P6SM SKC
     FM281300 33010G18KT P6SM FEW040
     FM281900 33012KT P6SM FEW050
     FM282300 33006KT P6SM SKC
     FM290600 31003KT P6SM SKC
     FM291300 01004KT P6SM SKC
      AMD NOT SKED=



000
FTUS41 KOKX 281100
TAFGON
TAF
KGON 281140Z 2812/2912 35008KT P6SM FEW050
     FM281300 34012KT P6SM SKC
     FM281800 30012KT P6SM FEW050
     FM282300 32008KT P6SM SKC
     FM290200 34006KT P6SM SKC
     FM290600 36004KT P6SM SKC=



000
FTUS41 KOKX 281100
TAFBDR
TAF
KBDR 281140Z 2812/2912 34010KT P6SM SKC
     FM281400 34012G17KT P6SM SKC
     FM281800 31013KT P6SM FEW050
     FM290000 34008KT P6SM SKC
     FM290600 36005KT P6SM SKC=



000
FTUS41 KOKX 281100
TAFJFK
TAF
KJFK 281140Z 2812/2918 35010KT P6SM SKC
     FM281400 34014G18KT P6SM SKC
     FM281800 32014KT P6SM FEW040
     FM290300 34011KT P6SM SKC
     FM290900 36008KT P6SM SKC
     FM291500 03008KT P6SM SKC=



000
FTUS41 KOKX 281100
TAFISP
TAF
KISP 281140Z 2812/2912 34010KT P6SM SKC
     FM281400 33012G18KT P6SM SKC
     FM282100 32013KT P6SM FEW050
     FM290000 33008KT P6SM SKC
     FM290600 36006KT P6SM SKC=



000
FTUS41 KOKX 281100
TAFEWR
TAF
KEWR 281140Z 2812/2918 34010KT P6SM SKC
     FM281400 33013G18KT P6SM SKC
     FM282100 33013KT P6SM FEW050
     FM290300 34011KT P6SM SKC
     FM290900 35008KT P6SM SKC=



000
FTUS41 KOKX 280800 AAA
TAFISP
TAF AMD
KISP 280832Z 2809/2906 35010KT P6SM FEW050
     FM281300 33012G18KT P6SM SKC
     FM282100 32013KT P6SM FEW050
     FM290300 34008KT P6SM SKC=



000
FTUS41 KOKX 280800 AAA
TAFJFK
TAF AMD
KJFK 280832Z 2809/2912 35010KT P6SM FEW050
     FM281300 34014G18KT P6SM SKC
     FM281800 32013KT P6SM FEW040
     FM290300 34011KT P6SM SKC=



000
FTUS41 KOKX 280800 AAA
TAFSWF
TAF AMD
KSWF 280832Z 2809/2912 32006KT P6SM SKC
     FM281300 33010G18KT P6SM FEW040
     FM281900 33012KT P6SM FEW050
     FM282300 33006KT P6SM SKC
     FM290600 31003KT P6SM SKC
      AMD NOT SKED=



000
FTUS41 KOKX 280800 AAA
TAFEWR
TAF AMD
KEWR 280832Z 2809/2912 34010KT P6SM SKC
     FM281300 33013G18KT P6SM SKC
     FM281800 32013KT P6SM FEW040
     FM290300 34011KT P6SM SKC=



000
FTUS41 KOKX 280800 AAA
TAFBDR
TAF AMD
KBDR 280832Z 2809/2906 35010KT P6SM FEW050
     FM281300 34012G17KT P6SM SKC
     FM281800 31013KT P6SM FEW050
     FM290000 34008KT P6SM SKC=



000
FTUS41 KOKX 280800 AAA
TAFGON
TAF AMD
KGON 280832Z 2809/2906 35008KT P6SM FEW050
     FM281300 34012KT P6SM SKC
     FM281800 30012KT P6SM FEW050
     FM282300 32008KT P6SM SKC
     FM290300 34006KT P6SM SKC=



000
FTUS41 KOKX 280800 AAA
TAFTEB
TAF AMD
KTEB 280832Z 2809/2906 35006KT P6SM SKC
     FM281300 33011G16KT P6SM SKC
     FM282100 32013KT P6SM FEW050
     FM290000 34007KT P6SM SKC=



000
FTUS41 KOKX 280800 AAA
TAFLGA
TAF AMD
KLGA 280832Z 2809/2906 35010KT P6SM FEW050
     FM281300 34012G18KT P6SM SKC
     FM281800 33012KT P6SM FEW040
     FM290300 34011KT P6SM SKC=



000
FTUS41 KOKX 280500 RRA
TAFBDR
TAF
KBDR 280543Z 2806/2906 34007KT P6SM FEW050
     FM281300 34012G17KT P6SM SKC
     FM281800 31013KT P6SM FEW050
     FM290000 34008KT P6SM SKC=



000
FTUS41 KOKX 280500 RRA
TAFTEB
TAF
KTEB 280543Z 2806/2906 35006KT P6SM FEW050
     FM281300 33011G16KT P6SM SKC
     FM282100 32013KT P6SM FEW050
     FM290000 34007KT P6SM SKC=



000
FTUS41 KOKX 280500 RRA
TAFISP
TAF
KISP 280543Z 2806/2906 VRB03KT P6SM FEW050
     FM280800 34008KT P6SM FEW050
     FM281300 33012G18KT P6SM SKC
     FM282100 32013KT P6SM FEW050
     FM290300 34008KT P6SM SKC=



000
FTUS41 KOKX 280500 RRA
TAFSWF
TAF
KSWF 280543Z 2806/2912 32006KT P6SM SCT040 SCT100
     FM281300 33010G18KT P6SM FEW040
     FM281900 33012KT P6SM FEW050
     FM282300 33006KT P6SM SKC
     FM290600 31003KT P6SM SKC
      AMD NOT SKED=



000
FTUS41 KOKX 280500 RRA
TAFGON
TAF
KGON 280543Z 2806/2906 VRB03KT P6SM SCT050 BKN120
     FM280800 35008KT P6SM FEW050
     FM281300 34012KT P6SM SKC
     FM281800 30012KT P6SM FEW050
     FM282300 32008KT P6SM SKC
     FM290300 34006KT P6SM SKC=



000
FTUS41 KOKX 280500 RRA
TAFEWR
TAF
KEWR 280543Z 2806/2912 34010KT P6SM FEW050
     FM281300 33013G18KT P6SM SKC
     FM281800 32013KT P6SM FEW040
     FM290300 34011KT P6SM SKC=



000
FTUS41 KOKX 280500 RRA
TAFJFK
TAF
KJFK 280543Z 2806/2912 34010KT P6SM FEW050
     FM281300 34014G18KT P6SM SKC
     FM281800 32013KT P6SM FEW040
     FM290300 34011KT P6SM SKC=



000
FTUS41 KOKX 280500 RRA
TAFLGA
TAF
KLGA 280543Z 2806/2906 34010KT P6SM FEW050
     FM281300 34012G18KT P6SM SKC
     FM281800 33012KT P6SM FEW040
     FM290300 34011KT P6SM SKC=



000
FTUS41 KOKX 280400 AAB
TAFLGA
TAF AMD
KLGA 280438Z 2805/2824 VRB03KT P6SM VCSH SCT050 BKN150
     FM280600 34010KT P6SM FEW050
     FM281300 34012G18KT P6SM SKC
     FM282100 34012KT P6SM SKC=



000
FTUS41 KOKX 280400 AAB
TAFTEB
TAF AMD
KTEB 280437Z 2805/2824 VRB04KT P6SM VCSH SCT050 BKN150
     FM280600 34008KT P6SM FEW050
     FM281300 32011G16KT P6SM SKC
     FM282100 32013KT P6SM SKC=



000
FTUS41 KOKX 280100 AAA
TAFTEB
TAF AMD
KTEB 280133Z 2802/2824 20008KT P6SM FEW100 SCT250
     FM280300 VRB04KT P6SM SCT050 BKN150
     FM280600 34008KT P6SM FEW050
     FM281300 32011G16KT P6SM SKC
     FM282100 32013KT P6SM SKC=



000
FTUS41 KOKX 280100 AAA
TAFLGA
TAF AMD
KLGA 280133Z 2802/2824 18010KT P6SM FEW050 SCT250
     FM280400 25006KT P6SM SCT050 BKN150
     FM280600 34010KT P6SM FEW050
     FM281300 34012G18KT P6SM SKC
     FM282100 34012KT P6SM SKC=



000
FTUS41 KOKX 280100 AAA
TAFISP
TAF AMD
KISP 280133Z 2802/2824 22011KT P6SM FEW250
     FM280300 24004KT P6SM FEW050
     FM280800 34008KT P6SM FEW050
     FM281300 33012G18KT P6SM SKC
     FM282100 32013KT P6SM SKC=



000
FTUS41 KOKX 280100 AAA
TAFEWR
TAF AMD
KEWR 280133Z 2802/2906 25010KT P6SM FEW050 SCT250
     FM280300 27005KT P6SM SCT050 BKN150
     FM280600 34011KT P6SM FEW050
     FM281300 33013G18KT P6SM SKC
     FM282100 32013KT P6SM SKC=



000
FTUS41 KOKX 280100 AAB
TAFBDR
TAF AMD
KBDR 280133Z 2802/2824 VRB04KT P6SM SCT040 BKN150
     FM280700 34007KT P6SM FEW050
     FM281300 32012G17KT P6SM SKC
     FM282100 32013KT P6SM SKC=



000
FTUS41 KOKX 280100 AAA
TAFGON
TAF AMD
KGON 280133Z 2802/2824 VRB03KT P6SM SCT060 BKN120
     FM280800 35008KT P6SM FEW050
     FM281300 31012KT P6SM SKC
     FM282300 33008KT P6SM SKC=



000
FTUS41 KOKX 280100 AAA
TAFSWF
TAF AMD
KSWF 280133Z 2802/2906 32006KT P6SM SCT040 SCT100
     FM281300 33010G18KT P6SM FEW040
     FM281900 33012KT P6SM SKC
     FM282300 33008KT P6SM SKC
      AMD NOT SKED=



000
FTUS41 KOKX 280100 AAB
TAFJFK
TAF AMD
KJFK 280133Z 2802/2906 22005KT P6SM SCT050 BKN150
     FM280600 33010KT P6SM FEW050
     FM281300 34014G18KT P6SM SKC
     FM282100 33012KT P6SM SKC=



000
FTUS41 KOKX 280000 AAA
TAFBDR
TAF AMD
KBDR 280005Z 2800/2824 21010KT P6SM FEW040 SCT250
      TEMPO 2800/2802 SHRA BKN040
     FM280200 VRB04KT P6SM SCT040 BKN150
     FM280700 34007KT P6SM FEW050
     FM281300 32012G17KT P6SM SKC
     FM282100 32013KT P6SM SKC=



000
FTUS41 KOKX 272300 AAA
TAFJFK
TAF AMD
KJFK 272334Z 2800/2906 19014G20KT P6SM FEW050 SCT250
     FM280200 23005KT P6SM SCT050 BKN150
     FM280600 33010KT P6SM FEW050
     FM281300 34014G18KT P6SM SKC
     FM282100 33012KT P6SM SKC=



000
FTUS41 KOKX 272300
TAFGON
TAF
KGON 272322Z 2800/2824 VRB03KT P6SM SCT060 BKN120
     FM280800 35008KT P6SM FEW050
     FM281300 31012KT P6SM SKC
     FM282300 33008KT P6SM SKC=



000
FTUS41 KOKX 272300
TAFEWR
TAF
KEWR 272322Z 2800/2906 25010KT P6SM FEW050 SCT250
     FM280200 27005KT P6SM SCT050 BKN150
     FM280600 34011KT P6SM FEW050
     FM281300 33013G18KT P6SM SKC
     FM282100 32013KT P6SM SKC=



000
FTUS41 KOKX 272300
TAFJFK
TAF
KJFK 272322Z 2800/2906 19014KT P6SM FEW050 SCT250
     FM280200 23005KT P6SM SCT050 BKN150
     FM280600 33010KT P6SM FEW050
     FM281300 34014G18KT P6SM SKC
     FM282100 33012KT P6SM SKC=



000
FTUS41 KOKX 272300
TAFLGA
TAF
KLGA 272322Z 2800/2824 18010KT P6SM FEW050 SCT250
     FM280200 25006KT P6SM SCT050 BKN150
     FM280600 34010KT P6SM FEW050
     FM281300 34012G18KT P6SM SKC
     FM282100 34012KT P6SM SKC=



000
FTUS41 KOKX 272300
TAFBDR
TAF
KBDR 272322Z 2800/2824 21010KT P6SM FEW040 SCT250
     FM280200 VRB04KT P6SM SCT040 BKN150
     FM280700 34007KT P6SM FEW050
     FM281300 32012G17KT P6SM SKC
     FM282100 32013KT P6SM SKC=



000
FTUS41 KOKX 272300
TAFSWF
TAF
KSWF 272322Z 2800/2906 28008KT P6SM VCTS BKN040CB
     FM280300 32006KT P6SM SCT040 SCT100
     FM281300 33010G18KT P6SM FEW040
     FM281900 33012KT P6SM SKC
     FM282300 33008KT P6SM SKC
      AMD NOT SKED=



000
FTUS41 KOKX 272300
TAFTEB
TAF
KTEB 272322Z 2800/2824 20008KT P6SM FEW100 SCT250
     FM280300 VRB04KT P6SM SCT050 BKN150
     FM280600 34008KT P6SM FEW050
     FM281300 32011G16KT P6SM SKC
     FM282100 32013KT P6SM SKC=



000
FTUS41 KOKX 272300
TAFISP
TAF
KISP 272322Z 2800/2824 22011KT P6SM FEW250
     FM280300 24004KT P6SM FEW050
     FM280800 34008KT P6SM FEW050
     FM281300 33012G18KT P6SM SKC
     FM282100 32013KT P6SM SKC=



000
FTUS41 KOKX 272100 AAB
TAFLGA
TAF AMD
KLGA 272133Z 2722/2818 18014KT P6SM FEW050 SCT250
     FM280300 25006KT P6SM SCT050 BKN150
     FM280600 34010KT P6SM FEW050
     FM281300 34012G18KT P6SM SKC=



000
FTUS41 KOKX 272000 AAA
TAFSWF
TAF AMD
KSWF 272032Z 2721/2824 23009KT P6SM SCT040 SCT250
     FM280000 28005KT P6SM VCTS BKN040CB
     FM280300 32006KT P6SM SCT040 SCT100
     FM281300 33010G18KT P6SM FEW040
     FM281900 33012KT P6SM SKC
      AMD NOT SKED=



000
FTUS41 KOKX 272000 AAA
TAFISP
TAF AMD
KISP 272032Z 2721/2818 22011KT P6SM FEW250
     FM280300 24004KT P6SM FEW050
     FM280800 34008KT P6SM FEW050
     FM281300 33012G18KT P6SM SKC=



000
FTUS41 KOKX 272000 AAA
TAFBDR
TAF AMD
KBDR 272032Z 2721/2818 21010KT P6SM FEW040 SCT250
     FM280200 VRB04KT P6SM SCT040 BKN150
     FM280700 34007KT P6SM SKC
     FM281300 32012G17KT P6SM SKC=



000
FTUS41 KOKX 272000 AAA
TAFEWR
TAF AMD
KEWR 272032Z 2721/2824 21010KT P6SM FEW050 SCT250
     FM280300 29005KT P6SM SCT050 BKN150
     FM280600 34011KT P6SM FEW050
     FM281300 33013G18KT P6SM SKC
     FM282100 32013KT P6SM SKC=



000
FTUS41 KOKX 272000 AAA
TAFLGA
TAF AMD
KLGA 272032Z 2721/2818 20014KT P6SM FEW050 SCT250
     FM280300 25006KT P6SM SCT050 BKN150
     FM280600 34010KT P6SM FEW050
     FM281300 34012G18KT P6SM SKC=



000
FTUS41 KOKX 272000 AAA
TAFGON
TAF AMD
KGON 272032Z 2721/2818 20010KT P6SM FEW250
     FM280000 VRB03KT P6SM SCT060 BKN120
     FM280800 35008KT P6SM SKC
     FM281300 31012KT P6SM SKC=



000
FTUS41 KOKX 272000 AAA
TAFTEB
TAF AMD
KTEB 272032Z 2721/2818 20008KT P6SM FEW100 SCT250
     FM280300 VRB04KT P6SM SCT050 BKN150
     FM280600 34008KT P6SM SKC
     FM281300 32011KT P6SM SKC=



000
FTUS41 KOKX 272000 AAA
TAFJFK
TAF AMD
KJFK 272032Z 2721/2824 19014KT P6SM FEW050 SCT250
     FM280300 23005KT P6SM SCT050 BKN150
     FM280600 33010KT P6SM FEW050
     FM281300 34012G18KT P6SM SKC
     FM282100 33012KT P6SM SKC=



000
FTUS41 KOKX 271700
TAFLGA
TAF
KLGA 271726Z 2718/2818 21009KT P6SM FEW050 SCT250
     FM280300 25006KT P6SM SCT050 BKN150
     FM280600 34010KT P6SM FEW050
     FM281300 34012G18KT P6SM SKC=



000
FTUS41 KOKX 271700
TAFJFK
TAF
KJFK 271726Z 2718/2824 19012KT P6SM FEW050 SCT250
     FM280300 23005KT P6SM SCT050 BKN150
     FM280600 33010KT P6SM FEW050
     FM281300 34012G18KT P6SM SKC
     FM282100 33012KT P6SM SKC=



000
FTUS41 KOKX 271700
TAFEWR
TAF
KEWR 271726Z 2718/2824 21008KT P6SM FEW050 SCT250
     FM280300 29005KT P6SM SCT050 BKN150
     FM280600 34011KT P6SM FEW050
     FM281300 33013G18KT P6SM SKC
     FM282100 32013KT P6SM SKC=



000
FTUS41 KOKX 271700
TAFGON
TAF
KGON 271726Z 2718/2818 20010KT P6SM FEW250
     FM280000 VRB03KT P6SM SCT060 BKN120
     FM280800 35008KT P6SM SKC
     FM281300 31012KT P6SM SKC=



000
FTUS41 KOKX 271700
TAFISP
TAF
KISP 271726Z 2718/2818 22011KT P6SM FEW250
     FM280300 24004KT P6SM FEW050
     FM280800 34008KT P6SM FEW050
     FM281300 33012G18KT P6SM SKC=



000
FTUS41 KOKX 271700
TAFBDR
TAF
KBDR 271726Z 2718/2818 21010KT P6SM FEW040 SCT250
     FM280200 VRB04KT P6SM SCT040 BKN150
     FM280700 34007KT P6SM SKC
     FM281300 32012G17KT P6SM SKC=



000
FTUS41 KOKX 271700
TAFTEB
TAF
KTEB 271726Z 2718/2818 19008KT P6SM FEW100 SCT250
     FM280300 VRB04KT P6SM SCT050 BKN150
     FM280600 34008KT P6SM SKC
     FM281300 32011KT P6SM SKC=



000
FTUS41 KOKX 271700
TAFSWF
TAF
KSWF 271726Z 2718/2824 23009KT P6SM SCT040 SCT250
     FM280000 28005KT P6SM VCTS BKN040CB
     FM280300 32006KT P6SM SCT040 SCT100
     FM281300 33010G18KT P6SM FEW040
     FM281900 33012KT P6SM SKC
      AMD NOT SKED=



000
FTUS41 KOKX 271400 AAB
TAFEWR
TAF AMD
KEWR 271431Z 2715/2818 21008KT P6SM FEW250
     FM271900 21010KT P6SM SCT040
     FM280200 28005KT P6SM SCT040 BKN100 PROB30 2802/2805 -SHRA
     FM280500 32008KT P6SM SCT040 SCT100
     FM281200 34012KT P6SM FEW040=



000
FTUS41 KOKX 271400 AAB
TAFTEB
TAF AMD
KTEB 271431Z 2715/2812 21009KT P6SM SCT060
     FM280200 VRB04KT P6SM SCT040 BKN100 PROB30 2802/2805 -SHRA
     FM280900 34009KT P6SM SCT040=



000
FTUS41 KOKX 271400 AAB
TAFGON
TAF AMD
KGON 271431Z 2715/2812 19011KT P6SM FEW040
     FM280300 VRB04KT P6SM SCT040
     FM281000 34008KT P6SM FEW040=



000
FTUS41 KOKX 271400 AAB
TAFJFK
TAF AMD
KJFK 271431Z 2715/2818 19010KT P6SM FEW250
     FM271700 18012KT P6SM SCT040
     FM280300 21005KT P6SM SCT040 BKN100
     FM280600 32010KT P6SM SCT040 SCT100
     FM281200 34012KT P6SM FEW040=



000
FTUS41 KOKX 271400 AAB
TAFISP
TAF AMD
KISP 271431Z 2715/2812 19011KT P6SM FEW040
     FM280300 VRB04KT P6SM SCT040 SCT100
     FM280900 34008KT P6SM SCT040=



000
FTUS41 KOKX 271400 AAB
TAFBDR
TAF AMD
KBDR 271431Z 2715/2812 19011KT P6SM FEW050
     FM280300 VRB04KT P6SM SCT040 SCT100
     FM280900 34008KT P6SM SCT040=



000
FTUS41 KOKX 271400 AAB
TAFLGA
TAF AMD
KLGA 271431Z 2715/2812 20010KT P6SM FEW250
     FM271900 19010KT P6SM SCT040
     FM280300 23006KT P6SM SCT040 BKN100
     FM280600 34010KT P6SM SCT040 SCT100=



000
FTUS41 KOKX 271300 AAA
TAFEWR
TAF AMD
KEWR 271355Z 2714/2818 21008KT P6SM FEW250
     FM271900 21010KT P6SM SCT040
     FM280200 28005KT P6SM SCT040 BKN100 PROB30 2802/2805 -SHRA
     FM280500 32008KT P6SM SCT040 SCT100
     FM281200 34012KT P6SM FEW040=



000
FTUS41 KOKX 271300 AAA
TAFGON
TAF AMD
KGON 271309Z 2713/2812 21010KT P6SM FEW250
     FM271500 19011KT P6SM FEW040
     FM280300 VRB04KT P6SM SCT040
     FM281000 34008KT P6SM FEW040=



000
FTUS41 KOKX 271300 AAA
TAFBDR
TAF AMD
KBDR 271307Z 2713/2812 21010KT P6SM FEW250
     FM271500 19011KT P6SM SCT040
     FM280300 VRB04KT P6SM SCT040 SCT100
     FM280900 34008KT P6SM SCT040=



000
FTUS41 KOKX 271300 AAA
TAFISP
TAF AMD
KISP 271306Z 2713/2812 19010KT P6SM FEW250
     FM271400 19011KT P6SM SCT040
     FM280300 VRB04KT P6SM SCT040 SCT100
     FM280900 34008KT P6SM SCT040=



000
FTUS41 KOKX 271200 AAA
TAFTEB
TAF AMD
KTEB 271257Z 2713/2812 19006KT P6SM FEW250
     FM271500 21009KT P6SM SCT040
     FM280200 VRB04KT P6SM SCT040 BKN100 PROB30 2802/2805 -SHRA
     FM280900 34009KT P6SM SCT040=



000
FTUS41 KOKX 271200 AAA
TAFLGA
TAF AMD
KLGA 271256Z 2713/2812 20010KT P6SM FEW250
     FM271900 19010KT P6SM SCT040
     FM280300 23006KT P6SM SCT040 BKN100
     FM280600 34010KT P6SM SCT040 SCT100=



000
FTUS41 KOKX 271200 AAA
TAFJFK
TAF AMD
KJFK 271255Z 2713/2818 19010KT P6SM FEW250
     FM271700 18012KT P6SM SCT040
     FM280300 21005KT P6SM SCT040 BKN100
     FM280600 32010KT P6SM SCT040 SCT100
     FM281200 34012KT P6SM FEW040=



000
FTUS41 KOKX 271100
TAFJFK
TAF
KJFK 271132Z 2712/2818 24005KT P6SM FEW250
     FM271700 20010KT P6SM SCT040
     FM280300 21005KT P6SM SCT040 BKN100
     FM280600 32010KT P6SM SCT040 SCT100
     FM281200 34012KT P6SM FEW040=



000
FTUS41 KOKX 271100
TAFEWR
TAF
KEWR 271132Z 2712/2818 24004KT P6SM FEW250
     FM271900 23009KT P6SM SCT040
     FM280200 28005KT P6SM SCT040 BKN100 PROB30 2802/2805 -SHRA
     FM280500 32008KT P6SM SCT040 SCT100
     FM281200 34012KT P6SM FEW040=



000
FTUS41 KOKX 271100
TAFSWF
TAF
KSWF 271132Z 2712/2818 VRB04KT P6SM FEW250
     FM271400 26007KT P6SM SCT040
     FM272300 30007KT P6SM BKN050 BKN130 PROB30 2800/2804 -SHRA
     FM280400 34005KT P6SM SCT040 SCT080
     FM281000 30005KT P6SM SCT040
     FM281400 34010KT P6SM FEW040
      AMD NOT SKED=



000
FTUS41 KOKX 271100
TAFISP
TAF
KISP 271132Z 2712/2812 VRB04KT P6SM FEW250
     FM271400 22008KT P6SM SCT040
     FM280300 VRB04KT P6SM SCT040 SCT100
     FM280900 34008KT P6SM SCT040=



000
FTUS41 KOKX 271100
TAFBDR
TAF
KBDR 271132Z 2712/2812 24006KT P6SM FEW250
     FM271500 22009KT P6SM SCT040
     FM280300 VRB04KT P6SM SCT040 SCT100
     FM280900 34008KT P6SM SCT040=



000
FTUS41 KOKX 271100
TAFLGA
TAF
KLGA 271132Z 2712/2812 24005KT P6SM FEW250
     FM271900 18010KT P6SM SCT040
     FM280300 23006KT P6SM SCT040 BKN100
     FM280600 34010KT P6SM SCT040 SCT100=



000
FTUS41 KOKX 271100
TAFGON
TAF
KGON 271132Z 2712/2812 VRB03KT P6SM FEW250
     FM271400 20007KT P6SM FEW040
     FM280300 VRB04KT P6SM SCT040
     FM281000 34008KT P6SM FEW040=



000
FTUS41 KOKX 271100
TAFTEB
TAF
KTEB 271132Z 2712/2812 VRB04KT P6SM FEW250
     FM271500 23006KT P6SM SCT040
     FM280200 VRB04KT P6SM SCT040 BKN100 PROB30 2802/2805 -SHRA
     FM280900 34009KT P6SM SCT040=



000
FTUS41 KOKX 271000 AAB
TAFISP
TAF AMD
KISP 271006Z 2710/2806 VRB04KT P6SM FEW250
     FM271400 22008KT P6SM SCT040
     FM280300 VRB04KT P6SM SCT040=



000
FTUS41 KOKX 271000 AAB
TAFGON
TAF AMD
KGON 271006Z 2710/2806 VRB03KT P6SM SCT010 SCT250
     FM271400 20007KT P6SM FEW050
     FM280300 VRB04KT P6SM FEW050=



000
FTUS41 KOKX 270800 CCA
TAFGON
TAF COR
KGON 270831Z 2709/2806 VRB03KT P6SM SCT250
      TEMPO 2709/2711 2SM BR BKN002
     FM271400 20007KT P6SM FEW050
     FM280300 VRB04KT P6SM FEW050=



000
FTUS41 KOKX 270800 AAA
TAFLGA
TAF AMD
KLGA 270830Z 2709/2806 24005KT P6SM FEW250
     FM271900 18010KT P6SM SCT040
     FM280300 23006KT P6SM SCT040 BKN130=



000
FTUS41 KOKX 270800 AAA
TAFJFK
TAF AMD
KJFK 270830Z 2709/2812 24005KT P6SM FEW250
     FM271300 21007KT P6SM SKC
     FM271700 20010KT P6SM SCT040
     FM280300 21005KT P6SM SCT040 BKN130
     FM280600 32010KT P6SM SCT040 SCT100=



000
FTUS41 KOKX 270800 AAA
TAFISP
TAF AMD
KISP 270830Z 2709/2806 VRB04KT P6SM FEW250
      TEMPO 2709/2712 4SM BR SCT005
     FM271400 22008KT P6SM SCT040
     FM280300 VRB04KT P6SM SCT040=



000
FTUS41 KOKX 270800 AAA
TAFSWF
TAF AMD
KSWF 270830Z 2709/2812 VRB04KT P6SM FEW250
     FM271400 26007KT P6SM SCT040
     FM272300 30007KT P6SM BKN050 BKN130 PROB30 2800/2804 -SHRA
     FM280400 34005KT P6SM SCT040 SCT080
     FM281000 30005KT P6SM SCT040
      AMD NOT SKED=



000
FTUS41 KOKX 270800 AAA
TAFTEB
TAF AMD
KTEB 270830Z 2709/2806 VRB04KT P6SM FEW250
     FM271500 23006KT P6SM SCT040
     FM280200 VRB04KT P6SM SCT040 BKN130 PROB30 2802/2806 -SHRA=



000
FTUS41 KOKX 270800 AAA
TAFEWR
TAF AMD
KEWR 270830Z 2709/2812 24004KT P6SM FEW250
     FM271900 23009KT P6SM SCT040
     FM280200 28005KT P6SM SCT040 BKN130 PROB30 2802/2806 -SHRA
     FM280600 32008KT P6SM SCT040=



000
FTUS41 KOKX 270800 AAA
TAFGON
TAF AMD
KGON 270830Z 2709/2806 VRB03KT 3SM BR SCT004
      TEMPO 2709/2711 1SM BR BKN002
     FM271400 20007KT P6SM FEW050
     FM280300 VRB04KT P6SM FEW050=



000
FTUS41 KOKX 270800 AAA
TAFBDR
TAF AMD
KBDR 270830Z 2709/2806 23006KT P6SM FEW250
     FM271500 22009KT P6SM SCT040
     FM280300 VRB04KT P6SM SCT040=



000
FTUS41 KOKX 270500
TAFTEB
TAF
KTEB 270530Z 2706/2806 VRB04KT P6SM FEW250
     FM271500 23006KT P6SM SCT040
     FM280200 VRB04KT P6SM SCT040 BKN130 PROB30 2802/2806 -SHRA=



000
FTUS41 KOKX 270500
TAFGON
TAF
KGON 270530Z 2706/2806 VRB04KT P6SM FEW250
     FM270800 VRB03KT 3SM BR SCT004
      TEMPO 2708/2711 1SM BR BKN002
     FM271400 20007KT P6SM FEW050
     FM280300 VRB04KT P6SM FEW050=



000
FTUS41 KOKX 270500
TAFSWF
TAF
KSWF 270530Z 2706/2812 VRB04KT P6SM FEW250
      TEMPO 2709/2713 4SM BR
     FM271400 26007KT P6SM SCT040
     FM272300 30007KT P6SM BKN050 BKN130 PROB30 2800/2804 -SHRA
     FM280400 34005KT P6SM SCT040 SCT080
     FM281000 30005KT P6SM SCT040
      AMD NOT SKED=



000
FTUS41 KOKX 270500
TAFJFK
TAF
KJFK 270530Z 2706/2812 24005KT P6SM FEW250
     FM271300 21007KT P6SM SKC
     FM271700 20010KT P6SM SCT040
     FM280300 21005KT P6SM SCT040 BKN130
     FM280600 32010KT P6SM SCT040 SCT100=



000
FTUS41 KOKX 270500
TAFBDR
TAF
KBDR 270530Z 2706/2806 23006KT P6SM FEW250
     FM271500 22009KT P6SM SCT040
     FM280300 VRB04KT P6SM SCT040=



000
FTUS41 KOKX 270500
TAFLGA
TAF
KLGA 270530Z 2706/2806 24005KT P6SM FEW250
     FM271900 18010KT P6SM SCT040
     FM280300 23006KT P6SM SCT040 BKN130=



000
FTUS41 KOKX 270500
TAFISP
TAF
KISP 270530Z 2706/2806 VRB04KT P6SM FEW250
      TEMPO 2709/2712 4SM BR SCT005
     FM271400 22008KT P6SM SCT040
     FM280300 VRB04KT P6SM SCT040=



000
FTUS41 KOKX 270500
TAFEWR
TAF
KEWR 270530Z 2706/2812 22004KT P6SM FEW250
     FM271900 23009KT P6SM SCT040
     FM280200 28005KT P6SM SCT040 BKN130 PROB30 2802/2806 -SHRA
     FM280600 32008KT P6SM SCT040=



000
FTUS41 KOKX 270200 AAA
TAFBDR
TAF AMD
KBDR 270237Z 2703/2724 22007KT P6SM FEW250
     FM270600 23004KT P6SM FEW250
     FM271500 22009KT P6SM SCT040=



000
FTUS41 KOKX 270200 AAA
TAFISP
TAF AMD
KISP 270237Z 2703/2724 22004KT P6SM FEW250
      TEMPO 2709/2712 4SM BR SCT005
     FM271400 22008KT P6SM SCT040=



000
FTUS41 KOKX 270200 AAA
TAFGON
TAF AMD
KGON 270237Z 2703/2724 22004KT P6SM FEW250
     FM270800 VRB03KT 3SM BR SCT004
      TEMPO 2708/2711 1SM BR BKN002
     FM271400 20007KT P6SM FEW050=



000
FTUS41 KOKX 270200 AAA
TAFLGA
TAF AMD
KLGA 270237Z 2703/2724 21008KT P6SM FEW250
     FM270600 24005KT P6SM FEW250
     FM271900 18010KT P6SM SCT040=



000
FTUS41 KOKX 270200 AAA
TAFEWR
TAF AMD
KEWR 270237Z 2703/2806 19005KT P6SM FEW250
     FM270500 22004KT P6SM FEW250
     FM271900 23009KT P6SM SCT040
     FM280000 28005KT P6SM SCT050 BKN130 PROB30 2802/2806 -SHRA=



000
FTUS41 KOKX 270200 AAA
TAFTEB
TAF AMD
KTEB 270237Z 2703/2724 VRB03KT P6SM FEW250
     FM271300 23006KT P6SM SCT040=



000
FTUS41 KOKX 270200 AAA
TAFJFK
TAF AMD
KJFK 270237Z 2703/2806 20005KT P6SM FEW250
     FM270600 24005KT P6SM FEW250
     FM271300 21007KT P6SM SKC
     FM271700 20010KT P6SM SCT040
     FM280200 VRB05KT P6SM SCT050 BKN130 PROB30 2802/2806 -SHRA=



000
FTUS41 KOKX 262300 RRA
TAFBDR
TAF
KBDR 262352Z 2700/2724 22007KT P6SM FEW250
     FM270300 VRB03KT P6SM FEW250
     FM271400 22008KT P6SM SCT040=



000
FTUS41 KOKX 262300 RRA
TAFSWF
TAF
KSWF 262352Z 2700/2806 21006KT P6SM SCT070 SCT250
     FM270200 VRB02KT P6SM FEW250
      TEMPO 2709/2713 4SM BR
     FM271400 26007KT P6SM SCT040
     FM272300 30007KT P6SM BKN050 BKN130 PROB30 2800/2804 -SHRA
     FM280400 34005KT P6SM FEW050 BKN080
      AMD NOT SKED=



000
FTUS41 KOKX 262300 RRA
TAFGON
TAF
KGON 262352Z 2700/2724 18005KT P6SM FEW250
     FM270200 VRB03KT P6SM FEW250
     FM270800 VRB03KT 3SM BR SCT004
      TEMPO 2708/2711 BKN002
     FM271400 20007KT P6SM FEW050=



000
FTUS41 KOKX 262300
TAFTEB
TAF
KTEB 262336Z 2700/2724 18005KT P6SM FEW040 SCT250
     FM270200 VRB03KT P6SM FEW250
     FM271300 23006KT P6SM SCT040=



000
FTUS41 KOKX 262300
TAFLGA
TAF
KLGA 262336Z 2700/2724 18009KT P6SM FEW050 SCT250
     FM270200 21007KT P6SM FEW250
     FM270600 24005KT P6SM FEW250
     FM271900 18010KT P6SM SCT040=



000
FTUS41 KOKX 262300
TAFJFK
TAF
KJFK 262336Z 2700/2806 17008KT P6SM FEW050 SCT250
     FM270200 20005KT P6SM FEW250
     FM270600 24005KT P6SM FEW250
     FM271300 21007KT P6SM SKC
     FM271700 20010KT P6SM SCT040
     FM280200 VRB05KT P6SM SCT050 BKN130 PROB30 2802/2806 -SHRA=



000
FTUS41 KOKX 262300
TAFEWR
TAF
KEWR 262336Z 2700/2806 15006KT P6SM FEW050 SCT250
     FM270200 19004KT P6SM FEW250
     FM270400 22004KT P6SM FEW250
     FM271900 23009KT P6SM SCT040
     FM280000 28005KT P6SM SCT050 BKN130 PROB30 2802/2806 -SHRA=



000
FTUS41 KOKX 262300
TAFISP
TAF
KISP 262336Z 2700/2724 18007KT P6SM FEW250
     FM270300 VRB03KT P6SM FEW250
      TEMPO 2709/2712 4SM BR SCT005
     FM271400 22008KT P6SM SCT040=



000
FTUS41 KOKX 262000 AAA
TAFJFK
TAF AMD
KJFK 262037Z 2621/2724 18012KT P6SM FEW040 SCT250
     FM270100 19005KT P6SM FEW250
     FM270600 23005KT P6SM FEW050 SCT150
     FM271700 20010KT P6SM SCT040 SCT150=



000
FTUS41 KOKX 262000 AAA
TAFEWR
TAF AMD
KEWR 262037Z 2621/2724 14008KT P6SM FEW050 SCT250
     FM270300 VRB05KT P6SM FEW250
     FM271400 23008KT P6SM FEW050 SCT150
     FM272200 26007KT P6SM SCT040 BKN100=



000
FTUS41 KOKX 262000 AAA
TAFTEB
TAF AMD
KTEB 262037Z 2621/2718 17007KT P6SM FEW040 SCT250
     FM270100 VRB04KT P6SM FEW250
     FM271500 23006KT P6SM FEW050 SCT150=



000
FTUS41 KOKX 262000 AAA
TAFLGA
TAF AMD
KLGA 262037Z 2621/2718 18009G15KT P6SM FEW060 SCT250
     FM270200 VRB05KT P6SM FEW250
     FM271400 24006KT P6SM FEW050 SCT150=



000
FTUS41 KOKX 262000 AAA
TAFGON
TAF AMD
KGON 262037Z 2621/2718 18007KT P6SM FEW050 SCT250
     FM270100 VRB05KT P6SM SCT250
     FM270900 VRB03KT 3SM BR SCT007
     FM271400 22007KT P6SM FEW007 SCT050=



000
FTUS41 KOKX 262000 AAA
TAFSWF
TAF AMD
KSWF 262037Z 2621/2724 VRB06KT P6SM SCT070 SCT250
      TEMPO 2709/2713 4SM BR
     FM271400 25006KT P6SM SCT050 SCT150
     FM271900 28009KT P6SM VCSH SCT040 BKN100
      AMD NOT SKED=



000
FTUS41 KOKX 262000 AAA
TAFBDR
TAF AMD
KBDR 262037Z 2621/2718 17008KT P6SM FEW050 SCT250
     FM270000 VRB05KT P6SM FEW250
     FM271300 23006KT P6SM FEW050 SCT150=



000
FTUS41 KOKX 262000 AAA
TAFISP
TAF AMD
KISP 262037Z 2621/2718 18008KT P6SM FEW050 SCT250
     FM270000 VRB05KT P6SM SCT250
      TEMPO 2710/2713 4SM BR SCT005
     FM271300 22007KT P6SM FEW005 FEW050 SCT150=



000
FTUS41 KOKX 261700
TAFLGA
TAF
KLGA 261738Z 2618/2718 17009KT P6SM FEW040 SCT250
     FM270200 VRB05KT P6SM FEW250
     FM271400 23006KT P6SM FEW050 SCT150=



000
FTUS41 KOKX 261700
TAFISP
TAF
KISP 261738Z 2618/2718 18008KT P6SM FEW040 SCT250
     FM270000 20005KT P6SM SCT250
     FM271000 VRB05KT 5SM BR SCT005
     FM271300 23006KT P6SM FEW005 SCT050=



000
FTUS41 KOKX 261700
TAFEWR
TAF
KEWR 261738Z 2618/2724 VRB05KT P6SM FEW050 SCT250
     FM261900 14008KT P6SM FEW040 SCT250
     FM270100 VRB05KT P6SM FEW250
     FM271400 23008KT P6SM FEW050 SCT150
     FM272200 26010G15KT P6SM SCT040 BKN100=



000
FTUS41 KOKX 261700
TAFGON
TAF
KGON 261738Z 2618/2718 18007KT P6SM FEW050 SCT250
     FM270100 VRB05KT P6SM SCT250
     FM270900 VRB03KT 3SM BR SCT007
     FM271400 22007KT P6SM FEW007 SCT050=



000
FTUS41 KOKX 261700
TAFTEB
TAF
KTEB 261738Z 2618/2718 VRB05KT P6SM FEW250
     FM262000 17007KT P6SM FEW040 SCT250
     FM270100 VRB04KT P6SM FEW250
     FM271500 24006KT P6SM FEW050 SCT150=



000
FTUS41 KOKX 261700
TAFBDR
TAF
KBDR 261738Z 2618/2718 19008KT P6SM FEW050 SCT250
     FM270000 VRB05KT P6SM FEW250
     FM271300 23006KT P6SM FEW050 SCT150=



000
FTUS41 KOKX 261700
TAFJFK
TAF
KJFK 261738Z 2618/2724 18012KT P6SM FEW040 SCT250
     FM270200 20005KT P6SM FEW250
     FM270700 23006KT P6SM FEW050 SCT150
     FM271900 20010KT P6SM SCT050 SCT150=



000
FTUS41 KOKX 261700
TAFSWF
TAF
KSWF 261738Z 2618/2724 VRB03KT P6SM FEW050 SCT250
     FM270900 VRB03KT 4SM BR SCT050 SCT150
     FM271300 25006KT P6SM SCT050 SCT150
     FM271900 28010KT P6SM SCT040 BKN100
      AMD NOT SKED=



000
FTUS41 KOKX 261600 AAB
TAFLGA
TAF AMD
KLGA 261620Z 2616/2712 07006KT P6SM FEW050 SCT250
     FM261700 19009KT P6SM FEW050 SCT250
     FM270200 24004KT P6SM FEW250
     FM270900 VRB05KT P6SM FEW050 SCT150=



000
FTUS41 KOKX 261500 AAA
TAFJFK
TAF AMD
KJFK 261502Z 2615/2718 17005KT P6SM FEW050
     FM261800 18012KT P6SM FEW050 SCT250
     FM270200 20005KT P6SM FEW250
     FM270900 23005KT P6SM FEW050 SCT150
     FM271400 23010KT P6SM SCT050 SCT150=



000
FTUS41 KOKX 261500 AAA
TAFTEB
TAF AMD
KTEB 261502Z 2615/2712 VRB03KT 6SM HZ FEW250
     FM262000 17006KT P6SM FEW050 SCT250
     FM270000 20005KT P6SM FEW050 SCT250
     FM270900 VRB03KT P6SM FEW050 SCT150=



000
FTUS41 KOKX 261500 AAA
TAFEWR
TAF AMD
KEWR 261502Z 2615/2718 VRB05KT P6SM FEW060 SCT250
     FM261900 15007KT P6SM FEW050 SCT250
     FM270000 20005KT P6SM FEW050 SCT250
     FM270900 VRB03KT P6SM FEW050 SCT150
     FM271400 25008KT P6SM SCT050 SCT150=



000
FTUS41 KOKX 261500 AAA
TAFGON
TAF AMD
KGON 261502Z 2615/2712 VRB05KT P6SM FEW250
     FM261700 17007KT P6SM FEW050 SCT250
     FM270000 VRB05KT P6SM SCT250
     FM270700 VRB03KT 3SM BR SCT007=



000
FTUS41 KOKX 261500 AAA
TAFISP
TAF AMD
KISP 261502Z 2615/2712 VRB05KT P6SM FEW050
     FM261900 18010KT P6SM FEW050 SCT250
     FM270000 20005KT P6SM SCT250
     FM270900 23005KT 5SM BR SCT005=



000
FTUS41 KOKX 261500 AAA
TAFBDR
TAF AMD
KBDR 261502Z 2615/2712 21005KT P6SM FEW050
     FM261700 19008KT P6SM FEW050 SCT250
     FM270000 VRB05KT P6SM SCT250=



000
FTUS41 KOKX 261500 AAA
TAFSWF
TAF AMD
KSWF 261502Z 2615/2718 VRB03KT P6SM FEW050 SCT250
     FM261900 24007KT P6SM FEW050 SCT250
     FM270000 VRB03KT P6SM FEW250
     FM270900 VRB03KT 5SM BR SCT050 SCT150
     FM271300 25006KT P6SM SCT050 SCT150
      AMD NOT SKED=



000
FTUS41 KOKX 261500 AAA
TAFLGA
TAF AMD
KLGA 261502Z 2615/2712 07007KT P6SM FEW050 SCT250
     FM262000 18010KT P6SM FEW050 SCT250
     FM270200 24004KT P6SM FEW250
     FM270900 VRB05KT P6SM FEW050 SCT150=



000
FTUS41 KOKX 261100
TAFSWF
TAF
KSWF 261130Z 2612/2718 VRB03KT P6SM FEW050 SCT250
      TEMPO 2612/2613 5SM BR FEW002
     FM261900 24007KT P6SM FEW050 SCT250
     FM270000 VRB03KT P6SM FEW250
     FM270900 VRB03KT 5SM BR SCT050 SCT150
     FM271300 25006KT P6SM SCT050 SCT150
      AMD NOT SKED=



000
FTUS41 KOKX 261100
TAFGON
TAF
KGON 261130Z 2612/2712 VRB03KT 5SM BR SCT007
      TEMPO 2612/2613 1/2SM FG VV001
     FM261300 VRB03KT P6SM SCT250
     FM261600 17007KT P6SM FEW050 SCT250
     FM270000 VRB05KT P6SM SCT250
     FM270700 VRB03KT 3SM BR SCT007=



000
FTUS41 KOKX 261100
TAFISP
TAF
KISP 261130Z 2612/2712 VRB03KT P6SM SCT250
      TEMPO 2612/2613 5SM BR BKN005
     FM261600 18005KT P6SM FEW050 SCT250
     FM261900 18010KT P6SM FEW050 SCT250
     FM270000 20005KT P6SM SCT250
     FM270900 23005KT 5SM BR SCT005=



000
FTUS41 KOKX 261100
TAFEWR
TAF
KEWR 261130Z 2612/2718 VRB05KT P6SM FEW060 SCT250
     FM261900 15007KT P6SM FEW050 SCT250
     FM270000 20005KT P6SM FEW050 SCT250
     FM270900 VRB03KT P6SM FEW050 SCT150
     FM271400 25008KT P6SM SCT050 SCT150=



000
FTUS41 KOKX 261100
TAFBDR
TAF
KBDR 261130Z 2612/2712 VRB03KT P6SM SCT250
      TEMPO 2612/2613 5SM BR BKN005
     FM261600 18005KT P6SM FEW050 SCT250
     FM261900 22007KT P6SM FEW050 SCT250
     FM270000 VRB05KT P6SM SCT250=



000
FTUS41 KOKX 261100
TAFJFK
TAF
KJFK 261130Z 2612/2718 VRB03KT P6SM FEW060 SCT250
     FM261500 14006KT P6SM FEW050 SCT250
     FM261800 18010KT P6SM FEW050 SCT250
     FM270200 20005KT P6SM FEW250
     FM270900 23005KT P6SM FEW050 SCT150
     FM271400 23010KT P6SM SCT050 SCT150=



000
FTUS41 KOKX 261100
TAFLGA
TAF
KLGA 261130Z 2612/2712 VRB03KT P6SM FEW060 SCT250
     FM261500 05007KT P6SM FEW050 SCT250
     FM262000 18010KT P6SM FEW050 SCT250
     FM270200 24004KT P6SM FEW250
     FM270900 VRB05KT P6SM FEW050 SCT150=



000
FTUS41 KOKX 261100
TAFTEB
TAF
KTEB 261130Z 2612/2712 VRB03KT P6SM SCT250
     FM262000 17006KT P6SM FEW050 SCT250
     FM270000 20005KT P6SM FEW050 SCT250
     FM270900 VRB03KT P6SM FEW050 SCT150=



000
FTUS41 KOKX 260900 AAB
TAFGON
TAF AMD
KGON 260952Z 2610/2706 VRB03KT 1SM BR BKN002
      TEMPO 2610/2612 1/2SM FG VV001
     FM261200 VRB03KT 5SM BR SCT007
     FM261300 VRB03KT P6SM SCT250
     FM261600 17007KT P6SM FEW050 SCT250
     FM270000 VRB05KT P6SM SCT250=



000
FTUS41 KOKX 260900 AAB
TAFBDR
TAF AMD
KBDR 260947Z 2610/2706 VRB03KT P6SM SCT250
      TEMPO 2610/2613 5SM BR BKN005
     FM261600 18005KT P6SM FEW050 SCT250
     FM261900 22007KT P6SM FEW050 SCT250
     FM270000 VRB05KT P6SM SCT250=



000
FTUS41 KOKX 260900 AAB
TAFISP
TAF AMD
KISP 260947Z 2610/2706 VRB03KT P6SM SCT250
      TEMPO 2610/2612 5SM BR BKN005
     FM261600 18005KT P6SM FEW050 SCT250
     FM261900 18010KT P6SM FEW050 SCT250
     FM270000 20005KT P6SM SCT250=



000
FTUS41 KOKX 260800 AAA
TAFBDR
TAF AMD
KBDR 260832Z 2609/2706 VRB03KT P6SM SCT250
     FM261600 18005KT P6SM FEW050 SCT250
     FM261900 22007KT P6SM FEW050 SCT250
     FM270000 VRB05KT P6SM SCT250=



000
FTUS41 KOKX 260800 AAA
TAFGON
TAF AMD
KGON 260832Z 2609/2706 VRB03KT 5SM BR FEW004
      TEMPO 2609/2611 1SM BR SCT004
     FM261300 VRB03KT P6SM SCT250
     FM261600 17007KT P6SM FEW050 SCT250
     FM270000 VRB05KT P6SM SCT250=



000
FTUS41 KOKX 260800 AAA
TAFLGA
TAF AMD
KLGA 260832Z 2609/2706 VRB03KT P6SM FEW060 SCT250
     FM261500 05007KT P6SM FEW050 SCT250
     FM262000 18010KT P6SM FEW050 SCT250
     FM270200 20005KT P6SM FEW250=



000
FTUS41 KOKX 260800 AAA
TAFJFK
TAF AMD
KJFK 260832Z 2609/2712 VRB03KT P6SM FEW060 SCT250
     FM261500 16006KT P6SM FEW050 SCT250
     FM261800 18010KT P6SM FEW050 SCT250
     FM270200 20005KT P6SM FEW250
     FM270900 VRB03KT P6SM FEW050 SCT150=



000
FTUS41 KOKX 260800 AAA
TAFSWF
TAF AMD
KSWF 260832Z 2609/2712 VRB03KT P6SM FEW050 SCT250
      TEMPO 2609/2611 5SM BR FEW002
     FM261900 24007KT P6SM FEW050 SCT250
     FM270000 VRB03KT P6SM FEW250
     FM270900 VRB03KT 5SM BR SCT050 SCT150
      AMD NOT SKED=



000
FTUS41 KOKX 260800 AAA
TAFISP
TAF AMD
KISP 260832Z 2609/2706 VRB03KT P6SM SCT250
     FM261600 18005KT P6SM FEW050 SCT250
     FM261900 18010KT P6SM FEW050 SCT250
     FM270000 20005KT P6SM SCT250=



000
FTUS41 KOKX 260800 AAA
TAFEWR
TAF AMD
KEWR 260832Z 2609/2712 VRB05KT P6SM FEW060 SCT250
     FM261900 15007KT P6SM FEW050 SCT250
     FM270000 20005KT P6SM FEW050 SCT250
     FM270900 VRB03KT P6SM FEW050 SCT150=



000
FTUS41 KOKX 260800 AAA
TAFTEB
TAF AMD
KTEB 260832Z 2609/2706 VRB03KT P6SM SCT250
     FM262000 17006KT P6SM FEW050 SCT250=



000
FTUS41 KOKX 260500
TAFTEB
TAF
KTEB 260539Z 2606/2706 VRB03KT P6SM SCT250
     FM262000 17006KT P6SM FEW050 SCT250=



000
FTUS41 KOKX 260500
TAFJFK
TAF
KJFK 260539Z 2606/2712 VRB03KT P6SM FEW060 SCT250
     FM261500 16006KT P6SM FEW050 SCT250
     FM261800 18010KT P6SM FEW050 SCT250
     FM270200 20005KT P6SM FEW250
     FM270900 VRB03KT P6SM FEW050 SCT150=



000
FTUS41 KOKX 260500
TAFISP
TAF
KISP 260539Z 2606/2706 VRB03KT P6SM SCT250
     FM261600 18005KT P6SM FEW050 SCT250
     FM261900 18010KT P6SM FEW050 SCT250
     FM270000 20005KT P6SM SCT250=



000
FTUS41 KOKX 260500
TAFSWF
TAF
KSWF 260539Z 2606/2712 VRB03KT P6SM FEW050 SCT250
      TEMPO 2609/2611 5SM BR FEW002
     FM261900 24007KT P6SM FEW050 SCT250
     FM270000 VRB03KT P6SM FEW250
     FM270900 VRB03KT 5SM BR SCT050 SCT150
      AMD NOT SKED=



000
FTUS41 KOKX 260500
TAFEWR
TAF
KEWR 260539Z 2606/2712 VRB05KT P6SM FEW060 SCT250
     FM261900 15007KT P6SM FEW050 SCT250
     FM270000 20005KT P6SM FEW050 SCT250
     FM270900 VRB03KT P6SM FEW050 SCT150=



000
FTUS41 KOKX 260500
TAFBDR
TAF
KBDR 260539Z 2606/2706 VRB03KT P6SM SCT250
     FM261600 18005KT P6SM FEW050 SCT250
     FM261900 22007KT P6SM FEW050 SCT250
     FM270000 VRB05KT P6SM SCT250=



000
FTUS41 KOKX 260500
TAFLGA
TAF
KLGA 260539Z 2606/2706 VRB03KT P6SM FEW060 SCT250
     FM261500 05007KT P6SM FEW050 SCT250
     FM262000 18010KT P6SM FEW050 SCT250
     FM270200 20005KT P6SM FEW250=



000
FTUS41 KOKX 260500
TAFGON
TAF
KGON 260539Z 2606/2706 VRB03KT P6SM SKC
      TEMPO 2608/2611 5SM BR
     FM261600 17007KT P6SM FEW050 SCT250
     FM270000 VRB05KT P6SM SCT250=



    US Dept of Commerce
    National Oceanic and Atmospheric Administration
    National Weather Service
    1325 East West Highway
    Silver Spring, MD 20910
    Page Author: NWS Internet Services Team
Disclaimer
Information Quality
Credits
Glossary
Privacy Policy
Freedom of Information Act (FOIA)
About Us
Career Opportunities